Time;durP1;ratioP1;P1;durP2;ratioP2;P2;SDS_P1;SDS_P2;PMS_P1;PMS_P2;Temp;Humidity;BMP_temperature;BMP_pressure;BME280_temperature;BME280_humidity;BME280_pressure;Samples;Min_cycle;Max_cycle;Signal;HPM_P1;HPM_P2
2023/03/25 00:01:12;;;;;;;3.92;3.10;;;;;;;;;;5002642;28;20022;-79
2023/03/25 00:03:40;;;;;;;8.70;3.50;;;;;;;;;;5018559;28;20038;-81
2023/03/25 00:06:06;;;;;;;4.38;3.00;;;;;;;;;;5018634;28;20021;-80
2023/03/25 00:08:31;;;;;;;5.07;3.13;;;;;;;;;;5018075;28;20172;-81
2023/03/25 00:10:57;;;;;;;4.85;3.15;;;;;;;;;;5018169;28;20034;-81
2023/03/25 00:13:23;;;;;;;4.68;3.13;;;;;;;;;;5001366;28;20480;-81
2023/03/25 00:15:52;;;;;;;5.43;3.15;;;;;;;;;;5000387;28;20052;-81
2023/03/25 00:18:18;;;;;;;5.13;3.38;;;;;;;;;;5001574;28;20034;-81
2023/03/25 00:20:44;;;;;;;7.18;3.13;;;;;;;;;;4999791;28;20032;-80
2023/03/25 00:23:13;;;;;;;7.55;3.33;;;;;;;;;;5000609;28;20052;-81
2023/03/25 00:25:38;;;;;;;5.38;2.75;;;;;;;;;;5000860;28;20112;-81
2023/03/25 00:28:04;;;;;;;4.75;3.00;;;;;;;;;;5002257;28;20497;-81
2023/03/25 00:30:29;;;;;;;4.85;2.70;;;;;;;;;;5001850;28;20027;-81
2023/03/25 00:32:56;;;;;;;6.53;3.10;;;;;;;;;;4984715;28;20090;-81
2023/03/25 00:35:22;;;;;;;7.82;3.15;;;;;;;;;;5004042;28;20409;-81
2023/03/25 00:37:51;;;;;;;6.70;3.13;;;;;;;;;;5016210;28;20516;-81
2023/03/25 00:40:16;;;;;;;5.45;2.83;;;;;;;;;;4998730;28;20378;-81
2023/03/25 00:42:43;;;;;;;4.82;2.65;;;;;;;;;;4976837;28;20042;-81
2023/03/25 00:45:12;;;;;;;6.85;3.15;;;;;;;;;;4997706;28;20037;-81
2023/03/25 00:47:37;;;;;;;5.38;2.63;;;;;;;;;;5001256;28;20046;-81
2023/03/25 00:50:03;;;;;;;4.65;2.38;;;;;;;;;;4999923;28;20037;-81
2023/03/25 00:52:28;;;;;;;7.43;2.63;;;;;;;;;;5000865;28;20042;-81
2023/03/25 00:54:54;;;;;;;6.50;3.08;;;;;;;;;;5003250;28;20104;-81
2023/03/25 00:57:20;;;;;;;6.20;2.88;;;;;;;;;;5002110;28;20533;-81
2023/03/25 00:59:45;;;;;;;5.60;3.25;;;;;;;;;;4982868;28;20120;-81
2023/03/25 01:02:10;;;;;;;;;;;;;;;;;;5009981;28;20069;-81
2023/03/25 01:04:38;;;;;;;4.25;3.00;;;;;;;;;;5000404;28;19910;-81
2023/03/25 01:07:03;;;;;;;5.57;3.08;;;;;;;;;;4981814;28;20038;-81
2023/03/25 01:09:29;;;;;;;6.47;3.20;;;;;;;;;;5000715;28;20038;-81
2023/03/25 01:11:54;;;;;;;7.20;3.47;;;;;;;;;;4998644;28;20038;-81
2023/03/25 01:14:20;;;;;;;5.90;3.00;;;;;;;;;;4984035;28;20030;-81
2023/03/25 01:16:46;;;;;;;4.82;2.92;;;;;;;;;;4999642;28;20058;-81
2023/03/25 01:19:11;;;;;;;;;;;;;;;;;;4989707;28;20045;-80
2023/03/25 01:21:37;;;;;;;5.05;3.13;;;;;;;;;;4996248;28;19957;-80
2023/03/25 01:24:02;;;;;;;;;;;;;;;;;;4986263;28;20030;-81
2023/03/25 01:26:27;;;;;;;4.82;3.20;;;;;;;;;;5030665;28;19964;-81
2023/03/25 01:28:53;;;;;;;7.40;3.47;;;;;;;;;;5001397;28;20030;-81
2023/03/25 01:31:21;;;;;;;4.25;3.33;;;;;;;;;;5003188;28;20042;-81
2023/03/25 01:33:47;;;;;;;5.75;3.60;;;;;;;;;;4989469;28;20505;-81
2023/03/25 01:36:13;;;;;;;5.05;3.47;;;;;;;;;;4985905;28;20101;-81
2023/03/25 01:38:39;;;;;;;4.85;3.20;;;;;;;;;;4989429;28;20029;-81
2023/03/25 01:41:05;;;;;;;;;;;;;;;;;;4988755;28;20505;-82
2023/03/25 01:43:31;;;;;;;5.45;3.53;;;;;;;;;;5002903;28;20392;-81
2023/03/25 01:45:57;;;;;;;4.50;3.10;;;;;;;;;;4996063;28;20115;-82
2023/03/25 01:48:34;;;;;;;5.45;3.78;;;;;;;;;;5010796;28;20034;-82
2023/03/25 01:51:06;;;;;;;4.15;3.67;;;;;;;;;;5013129;28;20033;-82
2023/03/25 01:53:31;;;;;;;5.45;3.88;;;;;;;;;;5006444;28;20485;-82
2023/03/25 01:55:58;;;;;;;4.85;3.90;;;;;;;;;;5005325;28;20041;-82
2023/03/25 01:58:26;;;;;;;5.18;3.90;;;;;;;;;;4978629;28;20057;-82
2023/03/25 02:00:53;;;;;;;4.47;3.40;;;;;;;;;;5009922;28;20053;-81
2023/03/25 02:03:19;;;;;;;4.60;3.50;;;;;;;;;;5005779;28;20054;-82
2023/03/25 02:05:54;;;;;;;5.88;3.63;;;;;;;;;;4974311;28;20492;-82
2023/03/25 02:08:20;;;;;;;4.90;3.72;;;;;;;;;;4994766;28;20041;-82
2023/03/25 02:10:46;;;;;;;4.85;3.53;;;;;;;;;;4995607;28;20112;-82
2023/03/25 02:13:11;;;;;;;13.55;9.27;;;;;;;;;;4997132;28;20046;-82
2023/03/25 02:15:45;;;;;;;8.25;5.20;;;;;;;;;;4999890;28;20041;-82
2023/03/25 02:18:19;;;;;;;7.03;4.10;;;;;;;;;;4980444;28;20429;-82
2023/03/25 02:21:02;;;;;;;6.15;4.13;;;;;;;;;;4980356;28;20034;-82
2023/03/25 02:23:46;;;;;;;6.22;4.22;;;;;;;;;;4996153;28;20034;-82
2023/03/25 02:26:23;;;;;;;5.10;3.90;;;;;;;;;;4998765;28;20038;-82
2023/03/25 02:28:50;;;;;;;6.50;4.50;;;;;;;;;;4993180;28;20026;-82
2023/03/25 02:31:27;;;;;;;6.63;4.55;;;;;;;;;;4996542;28;20113;-82
2023/03/25 02:34:03;;;;;;;8.20;5.00;;;;;;;;;;4996316;28;20059;-82
2023/03/25 02:36:29;;;;;;;7.28;4.90;;;;;;;;;;4997270;28;20133;-82
2023/03/25 02:39:00;;;;;;;6.90;5.00;;;;;;;;;;4988670;28;20117;-82
2023/03/25 02:41:30;;;;;;;6.80;5.20;;;;;;;;;;4979288;28;20096;-82
2023/03/25 02:44:11;;;;;;;9.48;6.40;;;;;;;;;;4998830;28;20034;-82
2023/03/25 02:46:37;;;;;;;9.23;7.32;;;;;;;;;;4997120;28;20414;-82
2023/03/25 02:49:04;;;;;;;9.10;6.00;;;;;;;;;;4980204;28;20026;-83
2023/03/25 02:51:34;;;;;;;7.53;5.72;;;;;;;;;;4998435;28;20494;-82
2023/03/25 02:54:06;;;;;;;8.82;6.13;;;;;;;;;;4981267;28;20046;-82
2023/03/25 02:56:32;;;;;;;11.95;6.18;;;;;;;;;;4988304;28;20560;-82
2023/03/25 02:58:57;;;;;;;9.15;6.63;;;;;;;;;;4980097;28;20022;-82
2023/03/25 03:01:25;;;;;;;8.88;7.55;;;;;;;;;;4996219;28;20058;-81
2023/03/25 03:03:52;;;;;;;8.52;6.63;;;;;;;;;;4994533;28;20112;-82
2023/03/25 03:06:18;;;;;;;9.85;6.75;;;;;;;;;;4976538;28;20109;-81
2023/03/25 03:08:49;;;;;;;11.43;7.07;;;;;;;;;;4990662;28;20498;-81
2023/03/25 03:11:28;;;;;;;9.50;7.53;;;;;;;;;;4996033;28;20092;-81
2023/03/25 03:14:13;;;;;;;10.73;8.25;;;;;;;;;;4981805;28;20125;-81
2023/03/25 03:16:59;;;;;;;11.20;7.88;;;;;;;;;;4995337;28;20034;-81
2023/03/25 03:19:37;;;;;;;9.70;7.87;;;;;;;;;;4999302;28;20025;-81
2023/03/25 03:22:21;;;;;;;9.93;7.63;;;;;;;;;;5005491;28;20030;-81
2023/03/25 03:24:51;;;;;;;9.70;7.95;;;;;;;;;;4999794;28;20034;-81
2023/03/25 03:27:35;;;;;;;10.80;8.50;;;;;;;;;;4992019;28;20030;-82
2023/03/25 03:30:01;;;;;;;10.45;8.13;;;;;;;;;;5006570;28;20510;-82
2023/03/25 03:32:36;;;;;;;11.35;8.18;;;;;;;;;;5003914;28;20096;-81
2023/03/25 03:35:06;;;;;;;10.77;8.45;;;;;;;;;;5007062;28;20121;-81
2023/03/25 03:37:33;;;;;;;12.73;8.55;;;;;;;;;;5001086;28;20374;-82
2023/03/25 03:39:58;;;;;;;10.93;8.35;;;;;;;;;;5010248;28;20023;-81
2023/03/25 03:42:29;;;;;;;11.52;9.38;;;;;;;;;;5010221;28;20034;-81
2023/03/25 03:44:55;;;;;;;12.73;10.43;;;;;;;;;;5010458;28;20034;-82
2023/03/25 03:47:23;;;;;;;12.02;8.80;;;;;;;;;;5004096;28;20176;-81
2023/03/25 03:49:56;;;;;;;10.55;8.13;;;;;;;;;;4994851;28;20022;-82
2023/03/25 03:52:24;;;;;;;10.68;8.43;;;;;;;;;;4999981;28;20109;-82
2023/03/25 03:54:57;;;;;;;11.48;8.95;;;;;;;;;;5003579;28;20082;-82
2023/03/25 03:57:26;;;;;;;10.70;8.82;;;;;;;;;;4998176;28;20023;-82
2023/03/25 04:00:05;;;;;;;11.20;8.65;;;;;;;;;;4984252;28;20030;-81
2023/03/25 04:02:37;;;;;;;11.85;9.20;;;;;;;;;;4993920;28;20081;-81
2023/03/25 04:05:04;;;;;;;13.65;9.32;;;;;;;;;;4995932;28;20042;-81
2023/03/25 04:07:57;;;;;;;11.98;8.75;;;;;;;;;;4981564;28;20027;-81
2023/03/25 04:10:44;;;;;;;11.57;9.20;;;;;;;;;;4997744;28;20078;-81
2023/03/25 04:13:12;;;;;;;12.20;9.45;;;;;;;;;;4993217;28;20068;-81
2023/03/25 04:15:38;;;;;;;11.38;8.32;;;;;;;;;;4994933;28;20034;-81
2023/03/25 04:18:03;;;;;;;11.15;8.93;;;;;;;;;;4995047;28;20061;-82
2023/03/25 04:20:32;;;;;;;10.93;9.00;;;;;;;;;;4975592;28;20030;-81
2023/03/25 04:22:58;;;;;;;10.15;8.32;;;;;;;;;;4992797;28;20402;-82
2023/03/25 04:25:24;;;;;;;11.05;8.60;;;;;;;;;;4996219;28;20030;-82
2023/03/25 04:27:52;;;;;;;11.95;9.48;;;;;;;;;;4977291;28;20491;-81
2023/03/25 04:30:18;;;;;;;11.05;8.80;;;;;;;;;;4995368;28;20064;-81
2023/03/25 04:32:47;;;;;;;11.68;9.43;;;;;;;;;;4993584;28;20055;-81
2023/03/25 04:35:13;;;;;;;10.35;8.60;;;;;;;;;;4997331;28;20474;-81
2023/03/25 04:37:40;;;;;;;12.82;9.02;;;;;;;;;;4998195;28;20070;-81
2023/03/25 04:40:07;;;;;;;11.63;8.95;;;;;;;;;;5002728;28;20113;-83
2023/03/25 04:42:36;;;;;;;12.25;9.20;;;;;;;;;;4990602;28;20146;-82
2023/03/25 04:45:03;;;;;;;12.60;8.70;;;;;;;;;;5012193;28;20037;-81
2023/03/25 04:47:29;;;;;;;12.82;8.60;;;;;;;;;;5006752;28;20053;-81
2023/03/25 04:49:54;;;;;;;11.38;8.23;;;;;;;;;;4991274;28;20026;-82
2023/03/25 04:52:20;;;;;;;11.32;8.82;;;;;;;;;;5004932;28;20114;-82
2023/03/25 04:54:45;;;;;;;12.57;9.07;;;;;;;;;;5006887;28;20030;-82
2023/03/25 04:57:11;;;;;;;9.18;8.20;;;;;;;;;;4984263;28;20070;-82
2023/03/25 04:59:36;;;;;;;11.48;8.60;;;;;;;;;;5003770;28;20084;-82
2023/03/25 05:02:02;;;;;;;;;;;;;;;;;;5002983;28;20030;-80
2023/03/25 05:04:27;;;;;;;11.45;8.70;;;;;;;;;;4996234;28;19910;-81
2023/03/25 05:06:52;;;;;;;;;;;;;;;;;;5003485;28;20092;-81
2023/03/25 05:09:19;;;;;;;10.02;8.10;;;;;;;;;;5000872;28;19909;-82
2023/03/25 05:11:44;;;;;;;10.82;8.50;;;;;;;;;;5001550;28;20041;-81
2023/03/25 05:14:10;;;;;;;11.98;8.45;;;;;;;;;;4983840;28;20485;-81
2023/03/25 05:16:36;;;;;;;11.02;8.32;;;;;;;;;;4997408;28;20190;-82
2023/03/25 05:19:02;;;;;;;;;;;;;;;;;;4985782;28;20033;-81
2023/03/25 05:21:28;;;;;;;11.73;8.95;;;;;;;;;;5011866;28;19914;-82
2023/03/25 05:23:53;;;;;;;;;;;;;;;;;;5010453;28;20030;-81
2023/03/25 05:26:19;;;;;;;11.00;7.90;;;;;;;;;;5024068;28;20444;-80
2023/03/25 05:28:44;;;;;;;;;;;;;;;;;;4980767;28;20495;-81
2023/03/25 05:31:10;;;;;;;12.73;7.88;;;;;;;;;;4999842;28;19925;-83
2023/03/25 05:33:36;;;;;;;;;;;;;;;;;;4995288;28;20144;-81
2023/03/25 05:36:04;;;;;;;10.40;7.97;;;;;;;;;;5001833;28;20377;-80
2023/03/25 05:38:32;;;;;;;12.13;8.25;;;;;;;;;;4998894;28;20029;-83
2023/03/25 05:40:59;;;;;;;11.68;8.43;;;;;;;;;;5000574;28;20100;-83
2023/03/25 05:43:24;;;;;;;12.23;8.18;;;;;;;;;;4987317;28;20516;-82
2023/03/25 05:45:50;;;;;;;11.05;8.57;;;;;;;;;;4995820;28;20043;-81
2023/03/25 05:48:15;;;;;;;;;;;;;;;;;;4997599;28;20030;-82
2023/03/25 05:50:41;;;;;;;9.43;7.57;;;;;;;;;;5001029;28;20407;-82
2023/03/25 05:53:08;;;;;;;;;;;;;;;;;;4996944;28;20462;-82
2023/03/25 05:55:33;;;;;;;10.27;7.97;;;;;;;;;;4993838;28;20397;-82
2023/03/25 05:58:00;;;;;;;;;;;;;;;;;;4998272;28;20030;-82
2023/03/25 06:00:25;;;;;;;12.00;8.30;;;;;;;;;;4996883;28;20377;-82
2023/03/25 06:02:51;;;;;;;11.82;8.77;;;;;;;;;;4997338;28;20037;-83
2023/03/25 06:05:16;;;;;;;12.10;8.10;;;;;;;;;;5003142;28;20489;-82
2023/03/25 06:07:42;;;;;;;;;;;;;;;;;;5000042;28;20029;-82
2023/03/25 06:10:09;;;;;;;11.13;8.23;;;;;;;;;;5029194;28;19914;-82
2023/03/25 06:12:37;;;;;;;12.55;8.52;;;;;;;;;;4988577;28;20057;-84
2023/03/25 06:15:09;;;;;;;12.13;8.35;;;;;;;;;;4998066;28;20121;-82
2023/03/25 06:17:37;;;;;;;11.90;8.65;;;;;;;;;;4976629;28;20031;-83
2023/03/25 06:20:10;;;;;;;11.82;8.90;;;;;;;;;;4993393;28;20026;-84
2023/03/25 06:22:36;;;;;;;10.43;8.15;;;;;;;;;;4996210;28;20034;-85
2023/03/25 06:25:02;;;;;;;12.75;8.82;;;;;;;;;;4997549;28;20026;-83
2023/03/25 06:27:27;;;;;;;11.23;9.05;;;;;;;;;;5002581;28;20116;-83
2023/03/25 06:29:53;;;;;;;;;;;;;;;;;;4985849;28;20026;-83
2023/03/25 06:32:18;;;;;;;11.73;8.63;;;;;;;;;;5000461;28;19993;-83
2023/03/25 06:34:44;;;;;;;11.70;8.73;;;;;;;;;;4996575;28;20034;-84
2023/03/25 06:37:10;;;;;;;12.48;9.43;;;;;;;;;;5002445;28;20029;-84
2023/03/25 06:39:36;;;;;;;12.52;8.95;;;;;;;;;;4996172;28;20037;-83
2023/03/25 06:42:09;;;;;;;10.68;8.70;;;;;;;;;;4978193;28;20067;-84
2023/03/25 06:44:49;;;;;;;10.07;8.35;;;;;;;;;;4984739;28;20030;-82
2023/03/25 06:47:36;;;;;;;10.65;8.60;;;;;;;;;;5000193;28;20030;-81
2023/03/25 06:50:01;;;;;;;12.00;8.60;;;;;;;;;;4980162;28;20030;-80
2023/03/25 06:52:26;;;;;;;;;;;;;;;;;;4995724;28;20037;-81
2023/03/25 06:54:52;;;;;;;10.93;8.98;;;;;;;;;;5016907;28;19914;-81
2023/03/25 06:57:17;;;;;;;10.65;9.07;;;;;;;;;;4997853;28;20474;-83
2023/03/25 06:59:43;;;;;;;;;;;;;;;;;;4995318;28;20037;-81
2023/03/25 07:02:12;;;;;;;11.20;9.05;;;;;;;;;;5003002;28;19909;-83
2023/03/25 07:04:38;;;;;;;11.90;9.10;;;;;;;;;;5000810;28;20045;-84
2023/03/25 07:07:03;;;;;;;;;;;;;;;;;;4994809;28;20472;-85
2023/03/25 07:09:29;;;;;;;10.95;8.77;;;;;;;;;;4993909;28;19981;-85
2023/03/25 07:11:54;;;;;;;;;;;;;;;;;;4985296;28;20075;-86
2023/03/25 07:14:20;;;;;;;12.43;9.40;;;;;;;;;;4999837;28;20307;-86
2023/03/25 07:16:45;;;;;;;;;;;;;;;;;;4992708;28;20058;-86
2023/03/25 07:19:10;;;;;;;13.65;9.60;;;;;;;;;;4993727;28;20024;-87
2023/03/25 07:21:36;;;;;;;13.52;10.05;;;;;;;;;;4992573;28;20026;-87
2023/03/25 07:24:01;;;;;;;;;;;;;;;;;;4990749;28;20042;-87
2023/03/25 07:26:27;;;;;;;12.38;9.30;;;;;;;;;;4985737;28;19921;-86
2023/03/25 07:28:52;;;;;;;;;;;;;;;;;;4985277;28;20038;-88
2023/03/25 07:31:17;;;;;;;12.23;9.57;;;;;;;;;;5025881;28;20005;-86
2023/03/25 07:33:43;;;;;;;12.98;9.77;;;;;;;;;;4988319;28;20047;-85
2023/03/25 07:36:08;;;;;;;;;;;;;;;;;;4983647;28;20046;-86
2023/03/25 07:38:34;;;;;;;14.15;9.35;;;;;;;;;;5023003;28;19991;-87
2023/03/25 07:41:03;;;;;;;10.00;8.60;;;;;;;;;;5003369;28;20018;-87
2023/03/25 07:43:31;;;;;;;12.30;9.27;;;;;;;;;;4977533;28;20074;-86
2023/03/25 07:46:09;;;;;;;11.27;9.23;;;;;;;;;;4978505;28;20430;-87
2023/03/25 07:48:35;;;;;;;;;;;;;;;;;;4986514;28;20030;-89
2023/03/25 07:51:01;;;;;;;11.90;9.50;;;;;;;;;;5018732;28;19920;-85
2023/03/25 07:53:26;;;;;;;;;;;;;;;;;;4993559;28;20397;-82
2023/03/25 07:55:52;;;;;;;11.65;9.00;;;;;;;;;;5012372;28;20051;-84
2023/03/25 07:58:17;;;;;;;;;;;;;;;;;;5004665;28;20037;-83
2023/03/25 08:00:43;;;;;;;12.18;8.88;;;;;;;;;;5024505;28;20000;-83
2023/03/25 08:03:08;;;;;;;;;;;;;;;;;;5002786;28;20038;-83
2023/03/25 08:05:34;;;;;;;12.40;9.45;;;;;;;;;;4992782;28;19910;-81
2023/03/25 08:08:00;;;;;;;12.82;9.20;;;;;;;;;;5003298;28;20409;-83
2023/03/25 08:10:25;;;;;;;;;;;;;;;;;;4964921;28;20078;-83
2023/03/25 08:12:51;;;;;;;12.50;9.45;;;;;;;;;;5002677;28;19933;-83
2023/03/25 08:15:17;;;;;;;;;;;;;;;;;;5000517;28;20421;-85
2023/03/25 08:17:42;;;;;;;12.15;9.90;;;;;;;;;;5027317;28;19921;-85
2023/03/25 08:20:07;;;;;;;;;;;;;;;;;;4996157;28;20022;-85
2023/03/25 08:22:33;;;;;;;15.10;9.82;;;;;;;;;;4993809;28;20013;-84
2023/03/25 08:24:58;;;;;;;;;;;;;;;;;;4978917;28;20030;-87
2023/03/25 08:27:24;;;;;;;16.75;9.40;;;;;;;;;;4994916;28;19953;-84
2023/03/25 08:29:54;;;;;;;;;;;;;;;;;;4995154;28;20112;-84
2023/03/25 08:32:20;;;;;;;12.55;9.57;;;;;;;;;;5004454;28;19926;-84
2023/03/25 08:34:45;;;;;;;;;;;;;;;;;;4998823;28;20300;-85
2023/03/25 08:37:11;;;;;;;12.52;9.20;;;;;;;;;;4995265;28;19920;-85
2023/03/25 08:39:40;;;;;;;14.25;9.43;;;;;;;;;;4993760;28;20019;-85
2023/03/25 08:42:06;;;;;;;12.20;9.57;;;;;;;;;;4995494;28;20476;-84
2023/03/25 08:44:32;;;;;;;;;;;;;;;;;;4991001;28;20054;-84
2023/03/25 08:46:57;;;;;;;16.10;10.70;;;;;;;;;;5032204;28;19977;-87
2023/03/25 08:49:23;;;;;;;14.52;11.13;;;;;;;;;;4995478;28;20049;-84
2023/03/25 08:51:48;;;;;;;;;;;;;;;;;;4981721;28;20346;-85
2023/03/25 08:54:14;;;;;;;15.68;11.93;;;;;;;;;;5025404;28;19944;-85
2023/03/25 08:56:39;;;;;;;;;;;;;;;;;;4990369;28;20136;-84
2023/03/25 08:59:05;;;;;;;15.75;11.63;;;;;;;;;;5002030;28;19914;-85
2023/03/25 09:01:30;;;;;;;;;;;;;;;;;;4983202;28;20747;-84
2023/03/25 09:03:56;;;;;;;14.90;11.43;;;;;;;;;;4996687;28;19961;-85
2023/03/25 09:06:22;;;;;;;15.18;10.98;;;;;;;;;;4995188;28;20038;-78
2023/03/25 09:08:47;;;;;;;;;;;;;;;;;;5003636;28;20030;-79
2023/03/25 09:11:14;;;;;;;14.93;10.65;;;;;;;;;;4992116;28;19952;-81
2023/03/25 09:13:39;;;;;;;15.30;10.93;;;;;;;;;;4991666;28;20069;-80
2023/03/25 09:16:05;;;;;;;;;;;;;;;;;;4989507;28;20407;-81
2023/03/25 09:18:31;;;;;;;12.90;10.02;;;;;;;;;;4987194;28;20300;-80
2023/03/25 09:20:57;;;;;;;;;;;;;;;;;;4975959;28;20034;-80
2023/03/25 09:23:22;;;;;;;14.52;10.63;;;;;;;;;;4991360;28;19918;-78
2023/03/25 09:25:47;;;;;;;;;;;;;;;;;;4993032;28;20037;-83
2023/03/25 09:28:13;;;;;;;15.60;11.32;;;;;;;;;;4993752;28;19909;-84
2023/03/25 09:30:39;;;;;;;15.25;10.60;;;;;;;;;;4987433;28;20109;-82
2023/03/25 09:33:04;;;;;;;;;;;;;;;;;;4995168;28;20420;-84
2023/03/25 09:35:30;;;;;;;15.77;11.75;;;;;;;;;;5025049;28;20012;-83
2023/03/25 09:37:55;;;;;;;17.70;13.55;;;;;;;;;;4993700;28;20029;-83
2023/03/25 09:40:21;;;;;;;;;;;;;;;;;;5000207;28;20034;-83
2023/03/25 09:43:03;;;;;;;18.75;13.90;;;;;;;;;;4997357;28;20284;-83
2023/03/25 09:45:35;;;;;;;17.58;13.45;;;;;;;;;;4994324;28;20120;-83
2023/03/25 09:48:15;;;;;;;17.10;14.70;;;;;;;;;;4981909;28;20030;-83
2023/03/25 09:50:41;;;;;;;18.98;14.85;;;;;;;;;;4975536;28;20093;-85
2023/03/25 09:53:06;;;;;;;;;;;;;;;;;;4993608;28;20029;-83
2023/03/25 09:55:33;;;;;;;19.67;15.23;;;;;;;;;;5003862;28;19921;-85
2023/03/25 09:58:22;;;;;;;20.80;15.80;;;;;;;;;;4998331;28;20022;-84
2023/03/25 10:00:55;;;;;;;20.33;16.45;;;;;;;;;;5000943;28;20030;-85
2023/03/25 10:03:27;;;;;;;23.10;18.33;;;;;;;;;;5000624;28;20038;-83
2023/03/25 10:05:56;;;;;;;21.23;17.08;;;;;;;;;;5001029;28;20030;-83
2023/03/25 10:08:21;;;;;;;21.33;17.25;;;;;;;;;;4994801;28;20026;-83
2023/03/25 10:10:47;;;;;;;;;;;;;;;;;;5001714;28;20029;-84
2023/03/25 10:13:21;;;;;;;22.33;18.58;;;;;;;;;;5027158;28;19984;-83
2023/03/25 10:15:50;;;;;;;23.60;19.30;;;;;;;;;;4992846;28;20054;-82
2023/03/25 10:18:27;;;;;;;28.77;21.08;;;;;;;;;;4976402;28;20022;-82
2023/03/25 10:21:05;;;;;;;24.10;20.35;;;;;;;;;;4991101;28;20126;-83
2023/03/25 10:23:37;;;;;;;25.63;20.35;;;;;;;;;;4991880;28;20047;-83
2023/03/25 10:26:21;;;;;;;25.20;20.50;;;;;;;;;;4989680;28;20064;-83
2023/03/25 10:28:56;;;;;;;22.55;18.85;;;;;;;;;;4990171;28;20030;-83
2023/03/25 10:31:24;;;;;;;23.87;18.70;;;;;;;;;;4984343;28;20046;-83
2023/03/25 10:33:53;;;;;;;22.88;18.92;;;;;;;;;;4974321;28;20878;-83
2023/03/25 10:36:20;;;;;;;20.25;17.50;;;;;;;;;;4991037;28;20379;-83
2023/03/25 10:38:46;;;;;;;20.67;17.33;;;;;;;;;;4990345;28;20117;-83
2023/03/25 10:41:25;;;;;;;20.15;17.50;;;;;;;;;;4975416;28;20066;-83
2023/03/25 10:43:51;;;;;;;22.55;17.20;;;;;;;;;;4993724;28;20038;-83
2023/03/25 10:46:16;;;;;;;;;;;;;;;;;;4991107;28;20037;-83
2023/03/25 10:48:42;;;;;;;23.38;18.48;;;;;;;;;;5013797;28;19921;-83
2023/03/25 10:51:07;;;;;;;;;;;;;;;;;;4992945;28;20033;-83
2023/03/25 10:53:33;;;;;;;21.30;18.35;;;;;;;;;;5014228;28;19921;-84
2023/03/25 10:55:58;;;;;;;;;;;;;;;;;;4995225;28;20026;-83
2023/03/25 10:58:23;;;;;;;22.75;17.30;;;;;;;;;;4993658;28;20005;-83
2023/03/25 11:00:49;;;;;;;;;;;;;;;;;;4975828;28;20382;-84
2023/03/25 11:03:16;;;;;;;21.65;18.73;;;;;;;;;;4992599;28;19989;-83
2023/03/25 11:05:41;;;;;;;22.63;20.05;;;;;;;;;;4991633;28;20461;-84
2023/03/25 11:08:07;;;;;;;;;;;;;;;;;;4991868;28;20133;-83
2023/03/25 11:10:33;;;;;;;22.70;19.40;;;;;;;;;;4993109;28;20325;-84
2023/03/25 11:13:02;;;;;;;;;;;;;;;;;;4991651;28;20125;-84
2023/03/25 11:15:29;;;;;;;22.35;18.00;;;;;;;;;;4991562;28;19920;-84
2023/03/25 11:18:14;;;;;;;21.95;19.33;;;;;;;;;;4985584;28;20030;-83
2023/03/25 11:20:51;;;;;;;20.15;18.05;;;;;;;;;;4993542;28;20065;-82
2023/03/25 11:23:16;;;;;;;19.73;17.45;;;;;;;;;;4993127;28;20053;-83
2023/03/25 11:25:42;;;;;;;;;;;;;;;;;;4995095;28;20030;-83
2023/03/25 11:28:13;;;;;;;19.33;17.13;;;;;;;;;;4991048;28;19921;-83
2023/03/25 11:30:38;;;;;;;20.27;17.88;;;;;;;;;;4978799;28;20113;-83
2023/03/25 11:33:03;;;;;;;;;;;;;;;;;;4991486;28;20170;-83
2023/03/25 11:35:30;;;;;;;19.60;16.23;;;;;;;;;;4994031;28;20369;-82
2023/03/25 11:37:59;;;;;;;20.67;16.23;;;;;;;;;;4993453;28;20034;-82
2023/03/25 11:40:26;;;;;;;19.83;16.33;;;;;;;;;;4977150;28;20568;-82
2023/03/25 11:42:52;;;;;;;20.17;17.10;;;;;;;;;;4992056;28;20863;-83
2023/03/25 11:45:18;;;;;;;18.55;16.50;;;;;;;;;;4994333;28;20401;-83
2023/03/25 11:47:44;;;;;;;19.15;16.88;;;;;;;;;;4974945;28;20034;-83
2023/03/25 11:50:09;;;;;;;;;;;;;;;;;;4985669;28;20160;-83
2023/03/25 11:52:44;;;;;;;18.85;15.75;;;;;;;;;;4999654;28;19913;-84
2023/03/25 11:55:20;;;;;;;20.48;16.23;;;;;;;;;;4991531;28;20044;-84
2023/03/25 11:57:46;;;;;;;18.17;15.82;;;;;;;;;;4996324;28;20093;-83
2023/03/25 12:00:13;;;;;;;;;;;;;;;;;;5002556;28;20456;-82
2023/03/25 12:02:40;;;;;;;19.05;15.10;;;;;;;;;;4996327;28;20373;-84
2023/03/25 12:05:05;;;;;;;;;;;;;;;;;;5003098;28;20029;-83
2023/03/25 12:07:39;;;;;;;18.98;14.38;;;;;;;;;;5001512;28;19968;-83
2023/03/25 12:10:05;;;;;;;18.33;15.63;;;;;;;;;;5000339;28;20038;-81
2023/03/25 12:12:31;;;;;;;;;;;;;;;;;;4998786;28;20060;-82
2023/03/25 12:15:26;;;;;;;17.15;15.20;;;;;;;;;;5027561;28;19918;-83
2023/03/25 12:18:10;;;;;;;17.35;15.25;;;;;;;;;;4982153;28;20892;-82
2023/03/25 12:20:50;;;;;;;16.55;14.57;;;;;;;;;;4995061;28;20038;-82
2023/03/25 12:23:35;;;;;;;17.52;15.05;;;;;;;;;;4993945;28;20410;-83
2023/03/25 12:26:14;;;;;;;18.05;15.27;;;;;;;;;;4991506;28;20052;-83
2023/03/25 12:28:39;;;;;;;16.35;14.50;;;;;;;;;;4995046;28;20042;-83
2023/03/25 12:31:06;;;;;;;;;;;;;;;;;;4993879;28;20022;-83
2023/03/25 12:33:31;;;;;;;16.02;13.85;;;;;;;;;;4993228;28;19930;-83
2023/03/25 12:35:57;;;;;;;;;;;;;;;;;;4985167;28;20074;-82
2023/03/25 12:38:37;;;;;;;16.52;14.25;;;;;;;;;;4995801;28;19913;-83
2023/03/25 12:41:09;;;;;;;16.60;14.23;;;;;;;;;;4995177;28;20037;-84
2023/03/25 12:43:40;;;;;;;16.17;14.48;;;;;;;;;;4995369;28;20026;-83
2023/03/25 12:46:21;;;;;;;16.52;14.70;;;;;;;;;;4995410;28;20081;-83
2023/03/25 12:49:04;;;;;;;15.95;14.32;;;;;;;;;;4982824;28;20065;-83
2023/03/25 12:52:01;;;;;;;16.55;13.95;;;;;;;;;;4995286;28;20033;-82
2023/03/25 12:54:37;;;;;;;16.02;14.07;;;;;;;;;;4970986;28;20070;-83
2023/03/25 12:57:12;;;;;;;17.58;14.50;;;;;;;;;;4998628;28;20038;-82
2023/03/25 12:59:59;;;;;;;16.80;15.00;;;;;;;;;;4994673;28;20054;-83
2023/03/25 13:02:54;;;;;;;16.10;14.40;;;;;;;;;;4989759;28;20511;-84
2023/03/25 13:05:21;;;;;;;17.65;15.18;;;;;;;;;;4957238;28;20046;-82
2023/03/25 13:07:54;;;;;;;17.23;15.07;;;;;;;;;;4978407;28;20177;-83
2023/03/25 13:10:20;;;;;;;16.13;14.43;;;;;;;;;;4995026;28;20038;-82
2023/03/25 13:12:46;;;;;;;;;;;;;;;;;;4996616;28;20105;-81
2023/03/25 13:15:19;;;;;;;17.30;14.50;;;;;;;;;;4985977;28;19921;-80
2023/03/25 13:17:46;;;;;;;15.98;14.07;;;;;;;;;;4974130;28;20062;-80
2023/03/25 13:20:12;;;;;;;16.85;14.43;;;;;;;;;;4992036;28;20038;-81
2023/03/25 13:22:38;;;;;;;;;;;;;;;;;;4995432;28;20030;-81
2023/03/25 13:25:04;;;;;;;15.60;13.90;;;;;;;;;;4995270;28;19968;-81
2023/03/25 13:27:31;;;;;;;15.07;13.55;;;;;;;;;;4972434;28;20061;-81
2023/03/25 13:29:56;;;;;;;14.20;12.70;;;;;;;;;;4972477;28;20502;-81
2023/03/25 13:32:21;;;;;;;;;;;;;;;;;;4976161;28;20054;-81
2023/03/25 13:34:55;;;;;;;14.85;13.35;;;;;;;;;;4994572;28;19963;-81
2023/03/25 13:37:44;;;;;;;15.18;13.05;;;;;;;;;;4979042;28;20108;-81
2023/03/25 13:40:12;;;;;;;14.23;12.80;;;;;;;;;;4992456;28;20030;-82
2023/03/25 13:42:56;;;;;;;14.80;13.25;;;;;;;;;;4995377;28;20477;-83
2023/03/25 13:45:22;;;;;;;15.80;14.10;;;;;;;;;;5001582;28;20849;-81
2023/03/25 13:47:47;;;;;;;;;;;;;;;;;;4996911;28;20026;-81
2023/03/25 13:50:22;;;;;;;15.77;14.07;;;;;;;;;;5031703;28;19914;-80
2023/03/25 13:52:48;;;;;;;16.40;14.65;;;;;;;;;;4996553;28;20431;-80
2023/03/25 13:55:13;;;;;;;;;;;;;;;;;;5001895;28;20030;-80
2023/03/25 13:57:57;;;;;;;17.00;15.00;;;;;;;;;;4996358;28;19920;-80
2023/03/25 14:00:25;;;;;;;18.48;15.23;;;;;;;;;;4997437;28;20034;-81
2023/03/25 14:03:09;;;;;;;17.23;15.43;;;;;;;;;;4994262;28;20029;-82
2023/03/25 14:05:38;;;;;;;19.23;15.85;;;;;;;;;;4991295;28;20518;-82
2023/03/25 14:08:06;;;;;;;17.45;15.57;;;;;;;;;;4976951;28;20030;-82
2023/03/25 14:10:35;;;;;;;17.95;16.05;;;;;;;;;;4997058;28;20529;-80
2023/03/25 14:13:01;;;;;;;18.40;16.27;;;;;;;;;;4985816;28;20145;-81
2023/03/25 14:15:34;;;;;;;20.85;17.23;;;;;;;;;;4996468;28;20074;-81
2023/03/25 14:18:03;;;;;;;18.83;16.80;;;;;;;;;;4979528;28;20443;-82
2023/03/25 14:20:31;;;;;;;19.77;16.98;;;;;;;;;;4990333;28;20076;-82
2023/03/25 14:22:57;;;;;;;21.35;17.02;;;;;;;;;;4990090;28;20042;-82
2023/03/25 14:25:27;;;;;;;20.40;18.15;;;;;;;;;;4980884;28;20059;-82
2023/03/25 14:27:53;;;;;;;21.60;17.83;;;;;;;;;;4992056;28;20042;-81
2023/03/25 14:30:19;;;;;;;;;;;;;;;;;;5000142;28;20033;-81
2023/03/25 14:32:44;;;;;;;22.02;18.98;;;;;;;;;;5000057;28;19932;-82
2023/03/25 14:35:09;;;;;;;;;;;;;;;;;;4999619;28;20030;-82
2023/03/25 14:37:35;;;;;;;23.27;18.73;;;;;;;;;;5013477;28;19913;-81
2023/03/25 14:40:01;;;;;;;;;;;;;;;;;;4998107;28;20060;-80
2023/03/25 14:42:27;;;;;;;24.35;20.30;;;;;;;;;;4994767;28;19913;-81
2023/03/25 14:44:58;;;;;;;23.38;19.75;;;;;;;;;;4993674;28;20030;-79
2023/03/25 14:47:27;;;;;;;24.48;21.27;;;;;;;;;;4990063;28;20034;-81
2023/03/25 14:50:05;;;;;;;24.63;21.00;;;;;;;;;;4984923;28;20127;-82
2023/03/25 14:52:37;;;;;;;25.38;21.38;;;;;;;;;;4992986;28;20034;-82
2023/03/25 14:55:14;;;;;;;25.05;20.65;;;;;;;;;;4996137;28;20095;-81
2023/03/25 14:57:40;;;;;;;25.48;21.25;;;;;;;;;;4993581;28;20027;-82
2023/03/25 15:00:12;;;;;;;24.15;20.10;;;;;;;;;;4997752;28;20022;-81